METAR Formatted Surface Weather Observation
Issued by NWS

Home | Current Version | Previous Version | Text Only | Print | Product List | Glossary On
Versions: 1 2 3 4 5 6 7 8 9 10 11 12 13 14 15 16 17 18 19 20 21 22 23 24 25 26 27 28 29 30
000
SAUS42 KTAE 172202
MTR1J0
METAR K1J0 172158Z AUTO 00000KT 10SM CLR 14/07 A3016 RMK AO2 SLPNO
T
NO CARRIER

RING

CONNECT 1200

BHMRR7NDZ ALL
TTAA00 KNDZ 172200
.A KNDZ 1217 DH2200/PPH 0.00



USA.gov is the U.S. government's official web portal to all federal, state and local government web resources and services.